Time;durP1;ratioP1;P1;durP2;ratioP2;P2;SDS_P1;SDS_P2;PMS_P1;PMS_P2;Temp;Humidity;BMP_temperature;BMP_pressure;BME280_temperature;BME280_humidity;BME280_pressure;Samples;Min_cycle;Max_cycle;Signal;HPM_P1;HPM_P2
2021/05/10 00:02:07;;;;;;;4.60;1.80;;;;;;;15.16;39.93;100429.63;5036678;28;20043;-77
2021/05/10 00:04:32;;;;;;;5.72;1.65;;;;;;;15.53;39.85;100490.69;5036961;28;20021;-78
2021/05/10 00:06:58;;;;;;;6.93;1.90;;;;;;;15.37;39.87;100472.25;5036852;28;20025;-76
2021/05/10 00:09:23;;;;;;;8.25;2.10;;;;;;;15.47;40.09;100502.06;5036679;28;20079;-78
2021/05/10 00:11:49;;;;;;;6.03;1.70;;;;;;;15.19;40.11;100445.22;5036733;28;20048;-77
2021/05/10 00:14:15;;;;;;;6.68;1.70;;;;;;;15.39;40.10;100496.03;5018996;28;20029;-77
2021/05/10 00:16:41;;;;;;;5.40;1.60;;;;;;;15.12;40.53;100454.97;5036484;28;20112;-77
2021/05/10 00:19:06;;;;;;;6.15;1.92;;;;;;;14.76;40.49;100399.84;5037142;28;20060;-78
2021/05/10 00:21:32;;;;;;;3.88;1.55;;;;;;;14.90;40.63;100436.28;5037583;28;20057;-78
2021/05/10 00:23:57;;;;;;;4.55;2.00;;;;;;;15.04;40.28;100471.84;5037708;28;20048;-77
2021/05/10 00:26:23;;;;;;;5.78;1.90;;;;;;;15.14;40.32;100499.00;5036336;28;20096;-77
2021/05/10 00:28:48;;;;;;;6.60;2.50;;;;;;;15.14;40.46;100504.31;5036504;28;20112;-78
2021/05/10 00:31:14;;;;;;;8.32;2.50;;;;;;;14.55;40.26;100407.75;5018569;28;20138;-78
2021/05/10 00:33:39;;;;;;;6.30;1.70;;;;;;;14.76;40.30;100437.06;5036213;28;20033;-77
2021/05/10 00:36:04;;;;;;;3.80;1.73;;;;;;;14.89;40.39;100455.06;5018663;28;20448;-76
2021/05/10 00:38:30;;;;;;;5.60;1.77;;;;;;;15.19;40.24;100493.13;5018642;28;20029;-78
2021/05/10 00:40:55;;;;;;;5.13;1.50;;;;;;;15.13;40.17;100481.38;5036158;28;20029;-76
2021/05/10 00:43:21;;;;;;;2.60;1.48;;;;;;;15.30;39.61;100489.16;5036007;28;20112;-78
2021/05/10 00:45:47;;;;;;;1.65;1.35;;;;;;;15.08;39.46;100464.31;5036140;28;20082;-79
2021/05/10 00:48:13;;;;;;;3.67;1.45;;;;;;;15.23;39.29;100497.06;5018279;28;20021;-75
2021/05/10 00:50:38;;;;;;;2.38;1.75;;;;;;;14.74;39.00;100412.50;5036300;28;20335;-77
2021/05/10 00:53:03;;;;;;;2.22;1.48;;;;;;;15.25;38.72;100489.72;5035849;28;20028;-77
2021/05/10 00:55:29;;;;;;;3.08;1.42;;;;;;;15.06;38.59;100451.22;5035260;28;20075;-79
2021/05/10 00:58:01;;;;;;;4.60;1.40;;;;;;;15.10;38.57;100468.44;5035815;28;20487;-77
2021/05/10 01:00:31;;;;;;;2.72;1.50;;;;;;;15.10;38.54;100483.59;5018280;28;20095;-78
2021/05/10 01:02:58;;;;;;;2.72;1.40;;;;;;;15.10;38.30;100481.75;5035732;28;20033;-78
2021/05/10 01:05:24;;;;;;;3.60;1.40;;;;;;;15.16;38.29;100485.50;5035552;28;20083;-77
2021/05/10 01:07:50;;;;;;;2.35;1.60;;;;;;;14.67;38.14;100418.75;5035670;28;20504;-78
2021/05/10 01:10:18;;;;;;;2.78;1.48;;;;;;;15.07;38.38;100487.44;5018105;28;20032;-78
2021/05/10 01:12:44;;;;;;;2.05;1.40;;;;;;;14.97;38.51;100484.22;5035653;28;20057;-78
2021/05/10 01:15:13;;;;;;;2.25;1.40;;;;;;;14.90;38.76;100488.63;5035406;28;20484;-78
2021/05/10 01:17:40;;;;;;;4.65;1.60;;;;;;;14.90;38.79;100486.78;5017844;28;20061;-78
2021/05/10 01:20:13;;;;;;;4.57;1.70;;;;;;;14.90;38.82;100480.66;5035417;28;20090;-77
2021/05/10 01:22:43;;;;;;;4.00;1.67;;;;;;;14.87;38.90;100486.34;5035536;28;20498;-78
2021/05/10 01:25:13;;;;;;;3.88;1.80;;;;;;;14.82;39.00;100475.38;5017649;28;20044;-77
2021/05/10 01:27:39;;;;;;;3.53;1.60;;;;;;;14.74;39.08;100456.88;5035187;28;20083;-77
2021/05/10 01:30:09;;;;;;;3.75;1.80;;;;;;;14.50;39.53;100450.81;5035120;28;20033;-77
2021/05/10 01:32:35;;;;;;;2.80;1.80;;;;;;;13.99;40.03;100370.88;5035228;28;20029;-78
2021/05/10 01:35:00;;;;;;;2.63;2.05;;;;;;;14.31;40.46;100432.69;5035083;28;20036;-76
2021/05/10 01:37:26;;;;;;;3.97;2.00;;;;;;;14.24;41.19;100458.31;5037519;28;20105;-75
2021/05/10 01:39:51;;;;;;;4.10;1.88;;;;;;;13.89;41.09;100436.66;5035611;28;20083;-77
2021/05/10 01:42:17;;;;;;;2.15;1.50;;;;;;;14.24;41.33;100479.56;5034994;28;20428;-78
2021/05/10 01:44:43;;;;;;;3.50;1.80;;;;;;;13.78;41.21;100399.09;5035021;28;20443;-79
2021/05/10 01:47:08;;;;;;;4.75;2.00;;;;;;;13.97;41.44;100431.28;5035074;28;20061;-77
2021/05/10 01:49:34;;;;;;;2.38;2.10;;;;;;;14.20;41.05;100475.63;5017398;28;20029;-76
2021/05/10 01:52:00;;;;;;;3.33;1.70;;;;;;;14.20;41.37;100467.66;5034925;28;20036;-77
2021/05/10 01:54:26;;;;;;;3.85;2.03;;;;;;;14.13;41.25;100491.44;5034663;28;20120;-77
2021/05/10 01:56:52;;;;;;;2.30;2.00;;;;;;;13.88;41.51;100428.88;5034913;28;20068;-76
2021/05/10 01:59:17;;;;;;;2.63;1.75;;;;;;;13.53;41.78;100380.72;5017204;28;20116;-75
2021/05/10 02:01:43;;;;;;;3.88;1.92;;;;;;;14.04;41.63;100478.38;5034741;28;20106;-78
2021/05/10 02:04:08;;;;;;;2.45;1.70;;;;;;;13.98;41.94;100477.25;5017162;28;20025;-77
2021/05/10 02:06:33;;;;;;;3.45;1.98;;;;;;;13.87;41.85;100465.22;5017115;28;20032;-77
2021/05/10 02:08:59;;;;;;;3.95;1.95;;;;;;;13.76;42.09;100455.00;5017309;28;20029;-77
2021/05/10 02:11:24;;;;;;;4.05;2.00;;;;;;;13.53;42.42;100431.13;5034752;28;20055;-76
2021/05/10 02:13:50;;;;;;;1.98;1.88;;;;;;;13.70;42.64;100465.50;5034524;28;20025;-77
2021/05/10 02:16:15;;;;;;;4.65;2.67;;;;;;;13.30;42.58;100417.78;5034494;28;20029;-77
2021/05/10 02:18:41;;;;;;;4.32;3.10;;;;;;;13.25;42.94;100441.34;5034563;28;20111;-78
2021/05/10 02:21:06;;;;;;;11.70;9.10;;;;;;;13.42;43.23;100486.41;5016995;28;20025;-77
2021/05/10 02:23:33;;;;;;;12.45;11.35;;;;;;;13.15;43.40;100443.38;5034567;28;20347;-77
2021/05/10 02:26:01;;;;;;;19.60;17.85;;;;;;;13.44;43.18;100487.06;5016920;28;20428;-78
2021/05/10 02:28:29;;;;;;;16.20;14.70;;;;;;;13.38;43.10;100485.91;5034284;28;20112;-79
2021/05/10 02:30:56;;;;;;;14.85;13.63;;;;;;;13.40;43.17;100481.25;5016920;28;20037;-78
2021/05/10 02:33:33;;;;;;;15.90;14.50;;;;;;;13.19;43.74;100450.00;5034148;28;20038;-77
2021/05/10 02:35:59;;;;;;;13.13;12.13;;;;;;;13.41;43.80;100488.22;5016899;28;20026;-76
2021/05/10 02:38:25;;;;;;;15.68;14.40;;;;;;;13.33;43.72;100480.28;5034394;28;20033;-78
2021/05/10 02:40:52;;;;;;;15.15;14.05;;;;;;;13.31;43.78;100498.19;5034484;28;20037;-77
2021/05/10 02:43:19;;;;;;;18.00;16.70;;;;;;;13.22;43.56;100480.66;5034251;28;20033;-75
2021/05/10 02:45:45;;;;;;;21.98;20.20;;;;;;;13.29;43.75;100501.00;5016804;28;20033;-77
2021/05/10 02:48:12;;;;;;;22.63;20.80;;;;;;;13.25;43.86;100494.41;5034240;28;20424;-78
2021/05/10 02:50:38;;;;;;;25.95;23.80;;;;;;;13.16;44.05;100500.69;5017083;28;20036;-77
2021/05/10 02:53:03;;;;;;;28.23;25.98;;;;;;;13.10;44.29;100503.22;5034256;28;20406;-77
2021/05/10 02:55:29;;;;;;;26.25;23.95;;;;;;;12.80;44.57;100457.91;5034194;28;20061;-77
2021/05/10 02:57:54;;;;;;;25.80;23.45;;;;;;;12.09;44.66;100350.94;5016651;28;20033;-76
2021/05/10 03:00:23;;;;;;;24.70;22.40;;;;;;;12.36;44.25;100412.44;5034057;28;20033;-77
2021/05/10 03:02:52;;;;;;;23.30;21.05;;;;;;;12.65;44.47;100494.03;5034209;28;20033;-78
2021/05/10 03:05:18;;;;;;;22.25;20.02;;;;;;;12.75;45.16;100512.41;5034170;28;20061;-77
2021/05/10 03:07:44;;;;;;;18.42;16.48;;;;;;;12.64;44.86;100513.59;5034123;28;20408;-77
2021/05/10 03:10:13;;;;;;;15.65;14.20;;;;;;;12.66;44.62;100511.59;5016543;28;20045;-77
2021/05/10 03:12:39;;;;;;;13.35;12.05;;;;;;;12.63;45.42;100512.75;5016620;28;20036;-77
2021/05/10 03:15:08;;;;;;;12.57;11.30;;;;;;;12.56;44.92;100508.28;5033852;28;20494;-77
2021/05/10 03:17:34;;;;;;;10.00;8.63;;;;;;;12.60;45.24;100510.41;5035248;28;20443;-77
2021/05/10 03:19:59;;;;;;;21.92;7.22;;;;;;;12.46;45.50;100502.31;5020199;28;20025;-78
2021/05/10 03:22:25;;;;;;;8.30;5.82;;;;;;;11.69;45.21;100395.88;5037801;28;20029;-77
2021/05/10 03:24:50;;;;;;;6.80;4.72;;;;;;;12.01;45.76;100448.88;5037834;28;20083;-76
2021/05/10 03:27:16;;;;;;;6.28;4.80;;;;;;;11.76;45.41;100399.53;5019789;28;20033;-76
2021/05/10 03:29:41;;;;;;;6.65;4.13;;;;;;;12.19;45.48;100495.53;5037491;28;20097;-79
2021/05/10 03:32:06;;;;;;;5.13;3.88;;;;;;;12.16;45.26;100470.22;5019735;28;20120;-77
2021/05/10 03:34:32;;;;;;;5.70;3.80;;;;;;;11.64;45.64;100406.13;5037468;28;20104;-77
2021/05/10 03:36:57;;;;;;;4.72;4.18;;;;;;;11.74;46.59;100481.69;5037570;28;20025;-77
2021/05/10 03:39:23;;;;;;;4.78;3.47;;;;;;;11.84;46.40;100497.47;5019653;28;20029;-76
2021/05/10 03:41:48;;;;;;;5.45;3.85;;;;;;;11.96;46.28;100508.59;5019906;28;20428;-76
2021/05/10 03:44:14;;;;;;;3.60;3.30;;;;;;;11.79;45.91;100454.78;5019613;28;20471;-78
2021/05/10 03:46:39;;;;;;;4.93;3.30;;;;;;;11.98;45.91;100472.19;5037125;28;20471;-77
2021/05/10 03:49:04;;;;;;;4.68;3.50;;;;;;;11.85;45.77;100443.53;5037147;28;20455;-75
2021/05/10 03:51:30;;;;;;;5.47;3.47;;;;;;;11.96;44.95;100447.72;5037003;28;20025;-76
2021/05/10 03:53:55;;;;;;;4.80;3.63;;;;;;;12.28;45.19;100497.19;5036935;28;20333;-76
2021/05/10 03:56:21;;;;;;;7.28;3.70;;;;;;;11.96;45.54;100443.25;5036920;28;20368;-78
2021/05/10 03:58:46;;;;;;;5.85;4.00;;;;;;;12.05;45.23;100459.97;5037081;28;20040;-76
2021/05/10 04:01:12;;;;;;;5.43;4.13;;;;;;;11.93;45.24;100461.28;5019245;28;20017;-78
2021/05/10 04:04:24;;;;;;;4.85;3.80;;;;;;;12.06;45.28;100480.16;5036722;28;20029;-77
2021/05/10 04:14:24;;;;;;;5.43;3.38;;;;;;;12.45;45.28;100537.75;5036744;28;20103;-76
2021/05/10 04:16:50;;;;;;;6.60;4.07;;;;;;;12.26;45.59;100507.94;5036618;28;20033;-77
2021/05/10 04:19:15;;;;;;;6.82;3.97;;;;;;;12.47;45.58;100541.88;5018904;28;20551;-76
2021/05/10 04:21:43;;;;;;;6.88;4.18;;;;;;;11.93;45.25;100451.53;5036653;28;20036;-75
2021/05/10 04:24:08;;;;;;;6.57;3.28;;;;;;;12.46;45.67;100524.34;5018885;28;20025;-74
2021/05/10 04:26:34;;;;;;;6.75;3.50;;;;;;;12.37;45.67;100509.44;5036137;28;20037;-74
2021/05/10 04:28:59;;;;;;;6.43;3.85;;;;;;;12.62;45.34;100534.09;5035368;28;20067;-76
2021/05/10 04:31:25;;;;;;;3.53;3.22;;;;;;;12.66;44.89;100546.88;5036279;28;20063;-77
2021/05/10 04:33:50;;;;;;;4.10;3.47;;;;;;;12.56;45.14;100525.00;5036309;28;20104;-76
2021/05/10 04:36:15;;;;;;;6.18;3.70;;;;;;;12.60;45.09;100528.97;5036250;28;20029;-77
2021/05/10 04:38:43;;;;;;;5.63;3.45;;;;;;;12.76;44.99;100541.38;5018756;28;20122;-76
2021/05/10 04:41:09;;;;;;;4.93;3.67;;;;;;;12.45;45.12;100503.31;5036049;28;20025;-77
2021/05/10 04:43:34;;;;;;;7.88;4.05;;;;;;;12.67;45.12;100513.25;5018561;28;20021;-77
2021/05/10 04:46:00;;;;;;;8.13;4.43;;;;;;;12.90;45.42;100543.34;5036241;28;20104;-75
2021/05/10 04:48:28;;;;;;;7.30;3.90;;;;;;;12.97;45.67;100552.28;5036001;28;20408;-76
2021/05/10 04:50:54;;;;;;;10.25;5.00;;;;;;;12.99;45.10;100550.28;5036082;28;20113;-77
2021/05/10 04:53:20;;;;;;;5.07;4.22;;;;;;;13.04;45.87;100544.50;5035751;28;20105;-76
2021/05/10 04:55:46;;;;;;;7.10;5.28;;;;;;;12.57;45.84;100462.25;5035920;28;20105;-76
2021/05/10 04:58:11;;;;;;;5.93;5.30;;;;;;;12.55;45.93;100467.69;5035634;28;20080;-77
2021/05/10 05:00:37;;;;;;;8.32;4.90;;;;;;;12.32;46.07;100462.28;5035764;28;20033;-77
2021/05/10 05:03:02;;;;;;;7.18;4.65;;;;;;;12.33;46.40;100457.81;5035844;28;20040;-76
2021/05/10 05:05:28;;;;;;;8.20;4.93;;;;;;;12.83;46.58;100528.28;5035669;28;20025;-76
2021/05/10 05:07:53;;;;;;;5.45;4.43;;;;;;;13.08;46.33;100534.38;5018044;28;20440;-77
2021/05/10 05:10:20;;;;;;;9.77;5.82;;;;;;;12.91;45.96;100485.88;5018063;28;20036;-76
2021/05/10 05:12:48;;;;;;;9.70;4.85;;;;;;;13.29;46.03;100543.44;5035398;28;20367;-77
2021/05/10 05:15:15;;;;;;;11.68;6.25;;;;;;;13.48;45.56;100549.38;5017563;28;20087;-76
2021/05/10 05:17:40;;;;;;;8.43;7.05;;;;;;;13.19;45.84;100500.38;5035238;28;20067;-78
2021/05/10 05:20:07;;;;;;;11.10;6.78;;;;;;;13.34;45.66;100519.88;5017328;28;20056;-77
2021/05/10 05:22:35;;;;;;;9.75;7.20;;;;;;;13.47;45.89;100542.41;5035087;28;20040;-78
2021/05/10 05:25:01;;;;;;;12.85;9.20;;;;;;;13.36;45.44;100520.53;5035134;28;20032;-77
2021/05/10 05:27:26;;;;;;;13.00;10.15;;;;;;;13.49;45.87;100548.38;5017484;28;20453;-76
2021/05/10 05:29:52;;;;;;;11.77;8.38;;;;;;;13.30;46.20;100496.53;5035164;28;20029;-77
2021/05/10 05:32:19;;;;;;;13.27;8.68;;;;;;;13.66;45.80;100534.03;5035109;28;20029;-76
2021/05/10 05:34:45;;;;;;;10.93;8.18;;;;;;;13.39;46.33;100484.91;5035348;28;20026;-76
2021/05/10 05:37:10;;;;;;;11.13;7.93;;;;;;;13.31;46.17;100458.41;5035147;28;20037;-76
2021/05/10 05:39:35;;;;;;;11.82;8.88;;;;;;;13.39;45.92;100453.09;5017693;28;20064;-78
2021/05/10 05:42:01;;;;;;;13.15;8.23;;;;;;;14.17;45.75;100556.47;5035135;28;20112;-78
2021/05/10 05:44:26;;;;;;;13.07;8.88;;;;;;;14.29;46.00;100554.25;5035314;28;20376;-78
2021/05/10 05:46:59;;;;;;;10.65;8.35;;;;;;;14.15;45.87;100536.41;5035016;28;20068;-78
2021/05/10 05:49:25;;;;;;;8.30;7.07;;;;;;;14.15;45.92;100529.28;5017244;28;20025;-77
2021/05/10 05:51:51;;;;;;;9.55;7.50;;;;;;;14.40;46.06;100553.81;5017306;28;20044;-74
2021/05/10 05:54:16;;;;;;;11.10;8.45;;;;;;;14.44;45.91;100549.00;5017089;28;20052;-77
2021/05/10 05:56:41;;;;;;;11.07;7.85;;;;;;;14.46;45.97;100536.38;5027482;28;20025;-76
2021/05/10 05:59:07;;;;;;;9.57;7.57;;;;;;;14.17;45.58;100483.94;4999211;28;20445;-78
2021/05/10 06:01:33;;;;;;;12.20;7.90;;;;;;;14.65;45.63;100545.69;4999646;28;20033;-78
2021/05/10 06:03:58;;;;;;;10.43;7.50;;;;;;;14.50;45.75;100501.28;5007442;28;20029;-79
2021/05/10 06:06:24;;;;;;;16.27;10.55;;;;;;;14.22;45.67;100437.25;5016630;28;20030;-78
2021/05/10 06:08:49;;;;;;;11.23;8.93;;;;;;;14.35;45.45;100455.22;5028055;28;20033;-78
2021/05/10 06:11:15;;;;;;;11.52;8.40;;;;;;;14.94;45.51;100541.25;5033689;28;20029;-79
2021/05/10 06:13:40;;;;;;;11.27;6.00;;;;;;;14.78;45.01;100496.19;5034299;28;20110;-78
2021/05/10 06:16:06;;;;;;;8.43;5.90;;;;;;;15.14;44.86;100543.38;5017974;28;20411;-78
2021/05/10 06:18:32;;;;;;;5.72;4.40;;;;;;;14.83;43.92;100474.38;5027934;28;20056;-78
2021/05/10 06:21:02;;;;;;;4.78;4.00;;;;;;;15.13;42.72;100512.47;5024914;28;20037;-80
2021/05/10 06:23:28;;;;;;;7.13;4.38;;;;;;;15.17;42.25;100511.91;5033782;28;20072;-76
2021/05/10 06:25:54;;;;;;;5.35;3.10;;;;;;;15.39;41.88;100533.28;5025757;28;20057;-78
2021/05/10 06:28:19;;;;;;;4.80;3.25;;;;;;;15.48;41.55;100535.66;4999759;28;20029;-80
2021/05/10 06:30:45;;;;;;;3.40;3.10;;;;;;;15.48;41.57;100521.53;5019830;28;20033;-79
2021/05/10 06:33:10;;;;;;;3.60;2.70;;;;;;;15.36;40.98;100494.56;5029543;28;20048;-77
2021/05/10 06:35:35;;;;;;;3.03;2.50;;;;;;;15.60;40.11;100516.56;5029081;28;20061;-79
2021/05/10 06:38:01;;;;;;;3.85;3.38;;;;;;;15.60;40.09;100503.25;5017985;28;20325;-79
2021/05/10 06:40:26;;;;;;;4.10;2.53;;;;;;;15.82;39.88;100529.78;5018894;28;20108;-79
2021/05/10 06:42:52;;;;;;;3.22;2.78;;;;;;;15.90;39.74;100528.81;4999457;28;20116;-78
2021/05/10 06:45:17;;;;;;;2.42;2.22;;;;;;;15.86;38.68;100508.91;4998918;28;20032;-77
2021/05/10 06:47:43;;;;;;;4.03;2.15;;;;;;;15.85;37.74;100496.63;5033342;28;20026;-77
2021/05/10 06:50:09;;;;;;;3.58;1.80;;;;;;;16.10;37.14;100529.84;5026070;28;20025;-77
2021/05/10 06:52:35;;;;;;;5.00;1.85;;;;;;;16.14;36.24;100523.13;5029945;28;20041;-77
2021/05/10 06:55:01;;;;;;;4.50;1.98;;;;;;;16.23;36.63;100531.81;5027550;28;20033;-78
2021/05/10 06:57:27;;;;;;;2.63;1.90;;;;;;;16.28;36.64;100528.59;5015947;28;20117;-79
2021/05/10 06:59:54;;;;;;;3.70;2.78;;;;;;;16.04;35.94;100471.19;5030953;28;20108;-78
2021/05/10 07:02:21;;;;;;;5.00;2.15;;;;;;;16.24;35.36;100522.00;5029039;28;20435;-78
2021/05/10 07:04:47;;;;;;;4.03;2.50;;;;;;;16.20;35.87;100501.06;5028817;28;20399;-80
2021/05/10 07:07:12;;;;;;;5.80;2.80;;;;;;;15.94;35.89;100433.41;5035978;28;20025;-77
2021/05/10 07:09:38;;;;;;;5.65;3.28;;;;;;;16.54;36.31;100512.84;5030287;28;20056;-76
2021/05/10 07:12:04;;;;;;;6.70;2.85;;;;;;;16.58;36.85;100502.63;5022919;28;20075;-79
2021/05/10 07:14:30;;;;;;;5.28;2.90;;;;;;;16.69;36.65;100526.13;5037136;28;20037;-76
2021/05/10 07:16:56;;;;;;;6.57;3.70;;;;;;;16.64;36.70;100488.53;5019943;28;20042;-76
2021/05/10 07:19:22;;;;;;;4.45;2.72;;;;;;;16.53;36.64;100474.72;5036457;28;20025;-77
2021/05/10 07:21:48;;;;;;;3.42;2.35;;;;;;;16.62;36.49;100463.91;5032146;28;20033;-75
2021/05/10 07:24:14;;;;;;;5.78;3.15;;;;;;;16.26;36.37;100384.88;5037282;28;20032;-78
2021/05/10 07:26:40;;;;;;;5.35;2.85;;;;;;;17.03;36.35;100511.97;5035431;28;20037;-78
2021/05/10 07:29:05;;;;;;;4.93;3.80;;;;;;;17.09;36.25;100501.38;5017440;28;20048;-77
2021/05/10 07:31:31;;;;;;;6.32;4.10;;;;;;;16.95;36.17;100469.47;5022665;28;20026;-76
2021/05/10 07:33:57;;;;;;;3.90;2.80;;;;;;;17.24;36.17;100500.44;5016966;28;20403;-74
2021/05/10 07:36:22;;;;;;;5.10;3.00;;;;;;;17.23;36.01;100502.28;5038652;28;20065;-77
2021/05/10 07:38:48;;;;;;;4.57;2.90;;;;;;;17.12;35.61;100468.97;5031085;28;20033;-76
2021/05/10 07:41:13;;;;;;;6.03;3.15;;;;;;;16.98;35.21;100450.38;5036859;28;20036;-74
2021/05/10 07:43:38;;;;;;;5.45;2.65;;;;;;;17.30;35.75;100491.63;4999918;28;20441;-79
2021/05/10 07:46:04;;;;;;;6.03;2.80;;;;;;;16.94;36.10;100404.63;5001305;28;20104;-80
2021/05/10 07:48:30;;;;;;;3.17;2.88;;;;;;;17.03;35.65;100406.09;5035307;28;20025;-78
2021/05/10 07:50:55;;;;;;;7.30;2.60;;;;;;;17.70;35.36;100480.09;5035869;28;20386;-75
2021/05/10 07:53:21;;;;;;;3.75;2.60;;;;;;;17.77;34.86;100482.78;5011482;28;20030;-77
2021/05/10 07:55:47;;;;;;;4.70;3.28;;;;;;;17.88;34.78;100476.06;5011538;28;20048;-77
2021/05/10 07:58:12;;;;;;;2.92;2.00;;;;;;;18.01;34.63;100468.88;5013957;28;20029;-78
2021/05/10 08:00:40;;;;;;;3.67;2.45;;;;;;;17.36;33.84;100342.16;5025809;28;20108;-74
2021/05/10 08:03:16;;;;;;;5.30;3.75;;;;;;;17.94;33.70;100425.28;5025796;28;20079;-76
2021/05/10 08:05:43;;;;;;;5.05;2.05;;;;;;;18.40;33.93;100477.94;4999548;28;20064;-79
2021/05/10 08:08:10;;;;;;;3.03;2.38;;;;;;;18.48;33.58;100484.94;5021589;28;20026;-77
2021/05/10 08:10:35;;;;;;;4.78;2.88;;;;;;;18.56;33.16;100482.88;5034719;28;20068;-78
2021/05/10 08:13:01;;;;;;;4.07;1.90;;;;;;;18.67;33.39;100470.78;5031410;28;20057;-76
2021/05/10 08:15:27;;;;;;;5.90;4.30;;;;;;;18.37;33.31;100414.19;5027889;28;20034;-76
2021/05/10 08:17:52;;;;;;;3.75;2.30;;;;;;;18.50;32.87;100411.50;5015003;28;20054;-78
2021/05/10 08:20:18;;;;;;;6.10;2.35;;;;;;;18.84;32.90;100439.03;5018278;28;20044;-79
2021/05/10 08:22:44;;;;;;;3.25;2.28;;;;;;;19.20;32.55;100470.63;5003908;28;20022;-78
2021/05/10 08:25:11;;;;;;;4.18;2.05;;;;;;;18.99;32.16;100427.06;5029453;28;20018;-76
2021/05/10 08:27:38;;;;;;;3.95;1.95;;;;;;;19.09;31.93;100436.50;5022594;28;20348;-79
2021/05/10 08:30:06;;;;;;;4.78;2.05;;;;;;;19.21;31.88;100457.03;5017380;28;20041;-77
2021/05/10 08:32:31;;;;;;;3.30;1.88;;;;;;;19.31;31.63;100468.13;5024044;28;20026;-78
2021/05/10 08:34:57;;;;;;;2.60;1.48;;;;;;;19.33;31.33;100462.59;5016130;28;20120;-78
2021/05/10 08:37:22;;;;;;;4.32;2.35;;;;;;;18.97;31.24;100414.91;5022072;28;20033;-79
2021/05/10 08:39:48;;;;;;;5.45;2.00;;;;;;;19.42;31.23;100455.94;5035766;28;20156;-78
2021/05/10 08:42:16;;;;;;;4.68;2.30;;;;;;;19.25;31.06;100409.25;5030163;28;20363;-80
2021/05/10 08:44:41;;;;;;;3.97;1.90;;;;;;;19.54;30.96;100435.50;5016902;28;20029;-77
2021/05/10 08:47:08;;;;;;;4.13;2.72;;;;;;;19.87;30.66;100455.91;5033158;28;20379;-77
2021/05/10 08:49:33;;;;;;;6.90;3.55;;;;;;;19.85;30.27;100418.63;5015991;28;20494;-79
2021/05/10 08:51:59;;;;;;;3.70;2.25;;;;;;;20.22;29.98;100440.22;5031167;28;20112;-76
2021/05/10 08:54:26;;;;;;;6.47;2.13;;;;;;;20.45;29.63;100455.72;5032584;28;20168;-80
2021/05/10 08:56:55;;;;;;;3.42;2.30;;;;;;;20.54;29.50;100447.19;5024324;28;20111;-79
2021/05/10 08:59:24;;;;;;;4.25;2.22;;;;;;;20.47;29.22;100411.53;5014115;28;20064;-79
2021/05/10 09:01:55;;;;;;;4.95;1.98;;;;;;;20.77;29.20;100446.53;5020853;28;20032;-78
2021/05/10 09:04:27;;;;;;;3.08;1.83;;;;;;;21.00;29.04;100437.84;5033907;28;20018;-79
2021/05/10 09:07:17;;;;;;;3.25;2.00;;;;;;;21.01;27.30;100438.66;5027560;28;20619;-77
2021/05/10 09:09:59;;;;;;;3.25;1.92;;;;;;;21.03;28.74;100428.53;4998532;28;20026;-80
2021/05/10 09:12:52;;;;;;;2.50;2.13;;;;;;;20.85;28.41;100367.59;5011449;28;20022;-79
2021/05/10 09:15:22;;;;;;;5.85;2.90;;;;;;;21.53;28.68;100427.28;5030350;28;20038;-79
2021/05/10 09:17:50;;;;;;;6.10;3.55;;;;;;;21.32;28.23;100355.25;5027822;28;20049;-78
2021/05/10 09:20:28;;;;;;;4.63;3.03;;;;;;;21.45;27.92;100367.66;5028848;28;20104;-77
2021/05/10 09:23:02;;;;;;;5.32;3.20;;;;;;;21.85;28.19;100408.22;5031138;28;20514;-79
2021/05/10 09:25:41;;;;;;;4.30;2.90;;;;;;;21.57;27.73;100312.09;5016666;28;20404;-77
2021/05/10 09:28:22;;;;;;;4.18;3.47;;;;;;;22.40;27.60;100397.22;4997738;28;20503;-79
2021/05/10 09:30:49;;;;;;;8.82;3.05;;;;;;;22.67;27.19;100401.06;5030619;28;20414;-80
2021/05/10 09:33:21;;;;;;;3.92;2.53;;;;;;;22.90;26.76;100402.09;5028270;28;20037;-78
2021/05/10 09:35:46;;;;;;;;;;;;;;;22.86;26.74;100395.53;5032295;28;20558;-79
2021/05/10 09:38:11;;;;;;;2.70;2.10;;;;;;;22.90;26.37;100377.84;5003158;28;20003;-80
2021/05/10 09:40:49;;;;;;;2.78;2.28;;;;;;;23.19;25.79;100387.63;5033441;28;20033;-80
2021/05/10 09:43:17;;;;;;;3.35;2.67;;;;;;;23.30;25.97;100383.25;5033674;28;20056;-77
2021/05/10 09:45:51;;;;;;;6.05;2.92;;;;;;;23.45;25.99;100395.13;5000046;28;20026;-79
2021/05/10 09:48:33;;;;;;;5.45;2.75;;;;;;;23.53;25.72;100374.22;5012293;28;20330;-78
2021/05/10 09:51:10;;;;;;;5.97;4.60;;;;;;;23.20;25.72;100329.16;5015124;28;20383;-79
2021/05/10 09:53:45;;;;;;;3.33;3.00;;;;;;;23.35;25.58;100319.47;5014623;28;20479;-78
2021/05/10 09:59:00;;;;;;;5.55;2.85;;;;;;;23.92;25.28;100359.84;5022711;28;20038;-79
2021/05/10 10:01:38;;;;;;;4.35;2.60;;;;;;;24.03;25.18;100355.44;4999655;28;20018;-79
2021/05/10 10:04:04;;;;;;;3.95;2.47;;;;;;;24.01;25.31;100341.38;5014650;28;20314;-78
2021/05/10 10:06:29;;;;;;;4.47;2.80;;;;;;;24.19;25.14;100348.38;5014746;28;20026;-79
2021/05/10 10:08:56;;;;;;;6.18;2.38;;;;;;;23.98;25.20;100274.41;5019445;28;20030;-78
2021/05/10 10:11:25;;;;;;;3.72;2.30;;;;;;;24.40;24.75;100353.03;5019076;28;20037;-77
2021/05/10 10:13:52;;;;;;;4.47;2.70;;;;;;;24.19;24.89;100311.41;5015174;28;20060;-79
2021/05/10 10:16:22;;;;;;;2.83;2.30;;;;;;;24.43;24.55;100339.03;4997532;28;20030;-77
2021/05/10 10:18:48;;;;;;;3.58;3.13;;;;;;;24.44;24.85;100346.06;4997280;28;20025;-77
2021/05/10 10:21:16;;;;;;;5.25;3.15;;;;;;;24.52;25.03;100329.44;5014574;28;20037;-77
2021/05/10 10:23:45;;;;;;;4.43;3.00;;;;;;;24.69;24.59;100319.41;5013305;28;20025;-77
2021/05/10 10:26:14;;;;;;;3.95;2.25;;;;;;;25.05;23.75;100336.06;5015014;28;20340;-78
2021/05/10 10:28:40;;;;;;;2.35;2.13;;;;;;;24.41;23.16;100235.88;5018507;28;20022;-77
2021/05/10 10:31:12;;;;;;;2.72;2.42;;;;;;;24.67;22.85;100272.13;5018688;28;20336;-77
2021/05/10 10:33:47;;;;;;;3.15;2.40;;;;;;;25.29;22.61;100323.06;5000911;28;20463;-77
2021/05/10 10:36:19;;;;;;;5.57;2.20;;;;;;;25.29;22.54;100310.38;5014651;28;20030;-79
2021/05/10 10:38:45;;;;;;;3.15;1.80;;;;;;;25.61;22.17;100325.78;5000938;28;20033;-79
2021/05/10 10:41:22;;;;;;;1.50;1.20;;;;;;;25.08;21.94;100284.19;5018258;28;20022;-77
2021/05/10 10:43:49;;;;;;;2.58;1.75;;;;;;;25.45;22.41;100307.81;5018410;28;20026;-79
2021/05/10 10:46:26;;;;;;;2.20;1.48;;;;;;;25.59;22.09;100298.19;5037776;28;20022;-78
2021/05/10 10:48:55;;;;;;;3.60;2.13;;;;;;;25.84;22.00;100294.88;5032497;28;20048;-79
2021/05/10 10:51:21;;;;;;;4.15;2.90;;;;;;;26.00;22.07;100298.50;5032762;28;20030;-77
2021/05/10 10:53:53;;;;;;;2.65;2.13;;;;;;;26.05;22.07;100266.09;5037920;28;20183;-77
2021/05/10 10:56:48;;;;;;;3.65;1.85;;;;;;;26.34;20.59;100296.31;5037581;28;20041;-78
2021/05/10 10:59:29;;;;;;;3.30;2.20;;;;;;;26.21;21.76;100273.22;5014991;28;20060;-77
2021/05/10 11:01:55;;;;;;;1.60;1.40;;;;;;;26.32;21.64;100266.78;5036669;28;20030;-78
2021/05/10 11:04:26;;;;;;;4.63;1.40;;;;;;;26.74;20.30;100285.63;5028421;28;20033;-78
2021/05/10 11:06:51;;;;;;;5.03;1.88;;;;;;;26.55;20.77;100257.41;5021167;28;20148;-79
2021/05/10 11:09:46;;;;;;;2.80;1.60;;;;;;;26.66;20.76;100269.09;5018100;28;20198;-77
2021/05/10 11:12:54;;;;;;;2.63;1.95;;;;;;;26.88;20.76;100267.00;5017843;28;20034;-77
2021/05/10 11:15:35;;;;;;;4.18;2.83;;;;;;;27.00;20.50;100259.47;5017845;28;20440;-76
2021/05/10 11:18:05;;;;;;;3.45;2.08;;;;;;;26.31;20.33;100150.63;5024820;28;20038;-79
2021/05/10 11:20:41;;;;;;;4.35;2.30;;;;;;;27.05;20.25;100236.97;5011804;28;20029;-78
2021/05/10 11:23:25;;;;;;;7.28;2.30;;;;;;;27.48;19.52;100255.41;5010243;28;20038;-78
2021/05/10 11:25:56;;;;;;;5.07;1.60;;;;;;;27.45;18.63;100247.00;5001301;28;20503;-76
2021/05/10 11:28:24;;;;;;;2.80;1.48;;;;;;;27.51;19.16;100243.25;5024675;28;20038;-77
2021/05/10 11:31:06;;;;;;;3.72;1.80;;;;;;;27.51;18.71;100243.25;5001230;28;20040;-78
2021/05/10 11:33:51;;;;;;;4.53;2.03;;;;;;;27.50;19.20;100242.44;5029551;28;20033;-77
2021/05/10 11:36:46;;;;;;;5.53;2.00;;;;;;;27.44;19.01;100207.41;5018464;28;20109;-79
2021/05/10 11:39:16;;;;;;;2.75;1.70;;;;;;;27.21;18.58;100184.38;5007879;28;20049;-79